Terminal Aerodrome Forecast
Issued by NWS Quad Cities IA IL

Home | Current Version | Previous Version | Text Only | Print | Product List | Glossary On
Versions: 1 2 3 4 5 6 7 8 9 10 11 12 13 14 15 16 17 18 19 20 21 22 23 24 25 26 27 28 29 30 31 32 33 34 35 36 37
000
FTUS43 KDVN 201702 AAA
TAFMLI
TAF AMD
KMLI 201702Z 2017/2112 20015KT P6SM SCT100
     FM202100 21011KT P6SM BKN100
     FM210200 VRB04KT P6SM BKN080
      TEMPO 2102/2106 6SM -TSRA BKN040CB=

USA.gov is the U.S. government's official web portal to all federal, state and local government web resources and services.